createdAt,value
2019-04-04T00:04:22.845Z,106.23
2019-04-04T00:06:52.927Z,211.37
2019-04-04T00:09:22.258Z,171.03
2019-04-04T00:11:51.615Z,254.50
2019-04-04T00:14:20.889Z,188.93
2019-04-04T00:16:50.081Z,258.93
2019-04-04T00:19:19.307Z,223.60
2019-04-04T00:21:48.698Z,165.10
2019-04-04T00:24:18.018Z,219.37
2019-04-04T00:26:47.405Z,224.20
2019-04-04T00:29:17.906Z,223.50
2019-04-04T00:31:49.497Z,273.33
2019-04-04T00:34:19.638Z,159.00
2019-04-04T00:36:49.663Z,180.67
2019-04-04T00:39:19.156Z,168.60
2019-04-04T00:41:48.576Z,118.60
2019-04-04T00:44:18.917Z,129.10
2019-04-04T00:46:48.377Z,111.23
2019-04-04T00:49:17.697Z,92.77
2019-04-04T00:51:46.950Z,109.30
2019-04-04T00:54:16.217Z,113.67
2019-04-04T00:56:46.898Z,86.20
2019-04-04T00:59:16.366Z,94.10
2019-04-04T01:01:45.705Z,119.93
2019-04-04T01:04:14.981Z,75.20
2019-04-04T01:06:44.250Z,91.27
2019-04-04T01:09:13.826Z,88.90
2019-04-04T01:11:43.189Z,77.57
2019-04-04T01:14:12.311Z,108.10
2019-04-04T01:16:41.604Z,77.13
2019-04-04T01:19:10.806Z,85.70
2019-04-04T01:21:40.130Z,62.00
2019-04-04T01:24:09.371Z,59.23
2019-04-04T01:26:38.499Z,166.10
2019-04-04T01:29:10.198Z,148.37
2019-04-04T01:31:38.720Z,54.13
2019-04-04T01:34:08.019Z,55.90
2019-04-04T01:36:37.342Z,85.93
2019-04-04T01:39:06.852Z,129.93
2019-04-04T01:41:36.861Z,61.40
2019-04-04T01:44:10.737Z,92.47
2019-04-04T01:46:38.021Z,47.17
2019-04-04T01:49:07.162Z,37.17
2019-04-04T01:51:36.520Z,29.73
2019-04-04T01:54:05.743Z,58.77
2019-04-04T01:56:36.755Z,43.00
2019-04-04T01:59:07.077Z,32.43
2019-04-04T02:01:37.614Z,291.33
2019-04-04T02:04:07.583Z,87.50
2019-04-04T02:06:36.802Z,78.53
2019-04-04T02:09:07.417Z,79.73
2019-04-04T02:11:37.632Z,53.80
2019-04-04T02:14:07.253Z,33.67
2019-04-04T02:16:36.459Z,42.40
2019-04-04T02:19:06.228Z,44.40
2019-04-04T02:21:35.618Z,53.97
2019-04-04T02:24:06.659Z,29.43
2019-04-04T02:26:36.614Z,132.53
2019-04-04T02:29:06.850Z,42.43
2019-04-04T02:31:37.733Z,41.03
2019-04-04T02:34:07.607Z,28.47
2019-04-04T02:36:36.891Z,22.57
2019-04-04T02:39:08.455Z,30.00
2019-04-04T02:41:37.753Z,24.60
2019-04-04T02:44:08.293Z,33.43
2019-04-04T02:46:38.177Z,31.27
2019-04-04T02:49:08.210Z,38.20
2019-04-04T02:51:41.161Z,26.87
2019-04-04T02:54:09.189Z,36.83
2019-04-04T02:56:38.467Z,30.80
2019-04-04T02:59:09.390Z,33.57
2019-04-04T03:01:38.739Z,24.87
2019-04-04T03:04:08.274Z,29.67
2019-04-04T03:06:37.504Z,27.63
2019-04-04T03:09:10.002Z,36.40
2019-04-04T03:11:38.357Z,26.37
2019-04-04T03:14:07.861Z,65.07
2019-04-04T03:16:37.059Z,88.60
2019-04-04T03:19:09.965Z,56.33
2019-04-04T03:21:37.314Z,44.33
2019-04-04T03:24:10.575Z,41.80
2019-04-04T03:26:39.774Z,41.17
2019-04-04T03:29:10.534Z,49.47
2019-04-04T03:31:39.864Z,44.50
2019-04-04T03:34:12.155Z,41.47
2019-04-04T03:36:39.902Z,50.53
2019-04-04T03:39:09.240Z,49.27
2019-04-04T03:41:38.529Z,48.53
2019-04-04T03:44:07.791Z,34.97
2019-04-04T03:46:38.850Z,33.83
2019-04-04T03:49:07.529Z,37.83
2019-04-04T03:51:38.296Z,38.63
2019-04-04T03:54:09.373Z,27.53
2019-04-04T03:56:39.346Z,19.17
2019-04-04T03:59:08.840Z,26.13
2019-04-04T04:01:38.042Z,27.87
2019-04-04T04:04:07.355Z,36.60
2019-04-04T04:06:41.254Z,34.40
2019-04-04T04:09:07.378Z,31.70
2019-04-04T04:11:37.421Z,21.00
2019-04-04T04:14:07.393Z,22.03
2019-04-04T04:16:36.507Z,19.17
2019-04-04T04:19:05.604Z,46.57
2019-04-04T04:21:34.967Z,29.40
2019-04-04T04:24:04.159Z,33.90
2019-04-04T04:26:33.414Z,23.80
2019-04-04T04:29:02.556Z,25.90
2019-04-04T04:31:31.852Z,19.90
2019-04-04T04:34:01.854Z,24.97
2019-04-04T04:36:31.227Z,36.37
2019-04-04T04:39:01.351Z,34.87
2019-04-04T04:41:31.281Z,35.00
2019-04-04T04:44:02.770Z,39.70
2019-04-04T04:46:31.394Z,34.00
2019-04-04T04:49:03.315Z,22.47
2019-04-04T04:51:31.347Z,30.07
2019-04-04T04:54:03.570Z,26.40
2019-04-04T04:56:32.686Z,20.67
2019-04-04T04:59:01.853Z,21.53
2019-04-04T05:01:31.098Z,20.17
2019-04-04T05:04:02.539Z,17.57
2019-04-04T05:06:31.010Z,16.97
2019-04-04T05:09:00.012Z,21.67
2019-04-04T05:11:28.991Z,19.93
2019-04-04T05:13:58.843Z,19.67
2019-04-04T05:16:27.963Z,20.30
2019-04-04T05:18:56.981Z,18.40
2019-04-04T05:21:28.733Z,21.13
2019-04-04T05:23:56.882Z,19.17
2019-04-04T05:26:26.127Z,20.20
2019-04-04T05:28:57.025Z,22.30
2019-04-04T05:31:26.524Z,25.67
2019-04-04T05:33:58.761Z,26.17
2019-04-04T05:36:26.732Z,21.73
2019-04-04T05:38:55.884Z,19.83
2019-04-04T05:41:27.260Z,20.67
2019-04-04T05:43:56.181Z,23.23
2019-04-04T05:46:25.515Z,23.47
2019-04-04T05:48:54.865Z,25.77
2019-04-04T05:51:23.909Z,23.77
2019-04-04T05:53:52.937Z,26.57
2019-04-04T05:56:24.303Z,26.47
2019-04-04T05:58:53.044Z,27.57
2019-04-04T06:01:23.127Z,26.10
2019-04-04T06:03:52.143Z,28.27
2019-04-04T06:06:21.195Z,28.40
2019-04-04T06:08:50.212Z,34.70
2019-04-04T06:11:21.658Z,34.43
2019-04-04T06:13:49.921Z,39.07
2019-04-04T06:16:19.216Z,38.13
2019-04-04T06:18:49.257Z,53.67
2019-04-04T06:21:18.839Z,32.27
2019-04-04T06:23:48.433Z,27.93
2019-04-04T06:26:17.653Z,27.83
2019-04-04T06:28:46.670Z,29.53
2019-04-04T06:31:15.840Z,35.77
2019-04-04T06:33:46.032Z,28.03
2019-04-04T06:36:17.627Z,32.83
2019-04-04T06:38:45.743Z,38.57
2019-04-04T06:41:14.823Z,53.63
2019-04-04T06:43:43.855Z,30.70
2019-04-04T06:46:13.000Z,59.97
2019-04-04T06:48:42.222Z,60.57
2019-04-04T06:51:14.332Z,37.67
2019-04-04T06:53:42.783Z,47.63
2019-04-04T06:56:11.818Z,57.30
2019-04-04T06:58:41.042Z,78.50
2019-04-04T07:01:11.244Z,125.53
2019-04-04T07:03:40.445Z,100.07
2019-04-04T07:06:10.171Z,93.03
2019-04-04T07:08:39.902Z,70.53
2019-04-04T07:11:21.288Z,136.47
2019-04-04T07:13:42.641Z,116.57
2019-04-04T07:16:10.426Z,142.53
2019-04-04T07:18:40.917Z,113.30
2019-04-04T07:21:10.116Z,91.80
2019-04-04T07:23:41.700Z,122.03
2019-04-04T07:26:14.575Z,138.13
2019-04-04T07:28:41.433Z,110.87
2019-04-04T07:31:10.450Z,93.67
2019-04-04T07:33:42.612Z,88.57
2019-04-04T07:36:10.161Z,145.20
2019-04-04T07:38:39.199Z,230.00
2019-04-04T07:41:08.965Z,194.40
2019-04-04T07:43:39.539Z,285.77
2019-04-04T07:46:16.173Z,294.33
2019-04-04T07:48:39.612Z,351.83
2019-04-04T07:51:08.901Z,453.83
2019-04-04T07:53:37.962Z,452.20
2019-04-04T07:56:07.148Z,491.17
2019-04-04T07:58:37.357Z,560.67
2019-04-04T08:01:06.392Z,636.43
2019-04-04T08:03:35.437Z,538.20
2019-04-04T08:06:04.790Z,708.07
2019-04-04T08:08:33.925Z,571.37
2019-04-04T08:11:02.962Z,693.70
2019-04-04T08:13:32.080Z,595.27
2019-04-04T08:16:01.174Z,624.90
2019-04-04T08:18:30.221Z,468.60
2019-04-04T08:20:59.284Z,466.97
2019-04-04T08:23:32.426Z,480.53
2019-04-04T08:26:01.875Z,473.37
2019-04-04T08:28:30.890Z,487.50
2019-04-04T08:30:59.937Z,461.93
2019-04-04T08:33:29.448Z,567.20
2019-04-04T08:36:05.815Z,475.77
2019-04-04T08:38:29.610Z,508.47
2019-04-04T08:40:58.762Z,341.63
2019-04-04T08:43:27.808Z,586.77
2019-04-04T08:45:57.161Z,458.43
2019-04-04T08:48:26.555Z,551.57
2019-04-04T08:50:55.664Z,401.57
2019-04-04T08:53:25.022Z,589.20
2019-04-04T08:55:54.316Z,545.70
2019-04-04T08:58:23.406Z,774.23
2019-04-04T09:00:52.626Z,800.73
2019-04-04T09:03:21.716Z,905.23
2019-04-04T09:05:50.794Z,945.23
2019-04-04T09:08:19.833Z,1071.37
2019-04-04T09:10:48.887Z,1284.17
2019-04-04T09:13:18.041Z,1278.70
2019-04-04T09:15:47.150Z,1160.30
2019-04-04T09:18:16.169Z,966.13
2019-04-04T09:20:45.309Z,1086.23
2019-04-04T09:23:14.356Z,1088.10
2019-04-04T09:25:44.124Z,779.10
2019-04-04T09:28:13.854Z,938.30
2019-04-04T09:30:43.240Z,992.10
2019-04-04T09:33:12.306Z,1070.67
2019-04-04T09:35:46.958Z,946.93
2019-04-04T09:38:16.626Z,821.87
2019-04-04T09:40:45.812Z,1030.60
2019-04-04T09:43:14.761Z,1146.07
2019-04-04T09:45:43.818Z,823.43
2019-04-04T09:48:13.981Z,855.13
2019-04-04T09:50:43.049Z,929.60
2019-04-04T09:53:12.044Z,982.20
2019-04-04T09:55:41.124Z,981.87
2019-04-04T09:58:10.255Z,1275.77
2019-04-04T10:00:39.319Z,1201.23
2019-04-04T10:03:08.407Z,764.43
2019-04-04T10:05:37.565Z,1036.63
2019-04-04T10:08:07.088Z,1139.67
2019-04-04T10:10:36.149Z,833.23
2019-04-04T10:13:05.279Z,1101.13
2019-04-04T10:15:34.316Z,1173.77
2019-04-04T10:18:03.381Z,1106.13
2019-04-04T10:20:33.398Z,1129.20
2019-04-04T10:23:02.793Z,1059.97
2019-04-04T10:25:31.823Z,1263.63
2019-04-04T10:28:00.853Z,982.23
2019-04-04T10:30:30.022Z,1062.23
2019-04-04T10:32:59.090Z,1366.80
2019-04-04T10:35:28.224Z,1432.33
2019-04-04T10:37:57.271Z,1337.27
2019-04-04T10:40:26.437Z,1465.40
2019-04-04T10:42:56.780Z,1282.70
2019-04-04T10:45:25.847Z,1478.10
2019-04-04T10:47:55.085Z,1398.03
2019-04-04T10:50:24.214Z,1438.47
2019-04-04T10:52:53.278Z,1453.80
2019-04-04T10:55:22.654Z,1355.37
2019-04-04T10:57:51.837Z,1502.47
2019-04-04T11:00:22.484Z,1511.27
2019-04-04T11:02:51.661Z,1495.00
2019-04-04T11:05:20.704Z,1309.30
2019-04-04T11:07:49.718Z,1456.30
2019-04-04T11:13:36.083Z,1011.20
2019-04-04T11:16:05.157Z,1140.50
2019-04-04T11:18:34.250Z,1080.37
2019-04-04T11:21:03.265Z,1279.10
2019-04-04T11:23:33.303Z,1252.57
2019-04-04T11:26:02.447Z,1137.63
2019-04-04T11:28:31.575Z,1519.83
2019-04-04T11:31:00.675Z,1392.23
2019-04-04T11:33:29.728Z,1181.20
2019-04-04T11:35:58.845Z,1194.43
2019-04-04T11:38:27.885Z,1214.17
2019-04-04T11:40:56.928Z,1197.17
2019-04-04T11:43:25.986Z,930.77
2019-04-04T11:45:55.405Z,1168.30
2019-04-04T11:48:24.502Z,1560.03
2019-04-04T11:50:53.555Z,1624.83
2019-04-04T11:53:22.669Z,1890.97
2019-04-04T11:55:51.786Z,1646.20
2019-04-04T11:58:20.819Z,1734.50
2019-04-04T12:00:51.596Z,1888.87
2019-04-04T12:03:20.800Z,1764.40
2019-04-04T12:05:49.923Z,1384.23
2019-04-04T12:08:18.949Z,1881.33
2019-04-04T12:10:47.909Z,1785.70
2019-04-04T12:13:16.927Z,1706.17
2019-04-04T12:15:45.958Z,1437.07
2019-04-04T12:18:14.973Z,1724.63
2019-04-04T12:20:44.028Z,1823.37
2019-04-04T12:23:13.063Z,1627.57
2019-04-04T12:25:42.138Z,1734.20
2019-04-04T12:28:11.182Z,1702.33
2019-04-04T12:30:40.309Z,1937.10
2019-04-04T12:33:09.345Z,1987.27
2019-04-04T12:35:38.394Z,1759.57
2019-04-04T12:38:08.442Z,1626.80
2019-04-04T12:40:37.463Z,1726.33
2019-04-04T12:43:06.575Z,1259.00
2019-04-04T12:45:35.622Z,1999.90
2019-04-04T12:48:04.641Z,1694.63
2019-04-04T12:50:33.603Z,1457.87
2019-04-04T12:53:02.923Z,1557.70
2019-04-04T12:55:31.988Z,1742.63
2019-04-04T12:58:01.046Z,1475.93
2019-04-04T13:00:30.119Z,1910.50
2019-04-04T13:02:59.165Z,1792.53
2019-04-04T13:05:28.213Z,1999.90
2019-04-04T13:07:57.322Z,1849.20
2019-04-04T13:10:32.849Z,1799.90
2019-04-04T13:12:57.311Z,1315.97
2019-04-04T13:15:26.359Z,1875.63
2019-04-04T13:17:55.433Z,1917.50
2019-04-04T13:20:24.451Z,1691.33
2019-04-04T13:22:53.595Z,1999.90
2019-04-04T13:25:22.727Z,1530.73
2019-04-04T13:27:51.801Z,1686.57
2019-04-04T13:30:21.921Z,1780.87
2019-04-04T13:32:51.389Z,1738.10
2019-04-04T13:35:20.607Z,1706.63
2019-04-04T13:37:49.834Z,1757.70
2019-04-04T13:40:18.910Z,1875.97
2019-04-04T13:42:48.004Z,1682.87
2019-04-04T13:45:17.404Z,1781.80
2019-04-04T13:47:46.657Z,1401.30
2019-04-04T13:50:19.483Z,1643.97
2019-04-04T13:52:46.746Z,1607.13
2019-04-04T13:55:15.871Z,1840.17
2019-04-04T13:57:45.438Z,1698.80
2019-04-04T14:00:16.397Z,1501.57
2019-04-04T14:02:45.838Z,1336.80
2019-04-04T14:05:15.010Z,1296.90
2019-04-04T14:07:44.365Z,1458.70
2019-04-04T14:10:16.974Z,1123.17
2019-04-04T14:12:44.290Z,1820.20
2019-04-04T14:15:13.515Z,1232.13
2019-04-04T14:17:43.976Z,1063.80
2019-04-04T14:20:13.439Z,973.20
2019-04-04T14:22:42.546Z,953.90
2019-04-04T14:25:12.020Z,970.87
2019-04-04T14:27:41.449Z,924.67
2019-04-04T14:30:11.949Z,1321.03
2019-04-04T14:32:41.776Z,809.70
2019-04-04T14:35:11.321Z,618.50
2019-04-04T14:37:42.091Z,983.17
2019-04-04T14:40:11.416Z,712.93
2019-04-04T14:42:40.532Z,604.50
2019-04-04T14:45:09.891Z,722.43
2019-04-04T14:47:38.960Z,678.43
2019-04-04T14:50:08.426Z,682.73
2019-04-04T14:52:39.464Z,598.33
2019-04-04T14:55:08.245Z,589.90
2019-04-04T14:57:37.307Z,519.80
2019-04-04T15:00:09.604Z,454.63
2019-04-04T15:02:39.818Z,379.33
2019-04-04T15:05:09.002Z,901.63
2019-04-04T15:07:38.051Z,779.40
2019-04-04T15:10:07.075Z,384.60
2019-04-04T15:12:36.398Z,401.00
2019-04-04T15:15:05.876Z,407.37
2019-04-04T15:17:34.948Z,474.30
2019-04-04T15:20:05.276Z,529.13
2019-04-04T15:22:34.302Z,497.57
2019-04-04T15:25:03.418Z,439.20
2019-04-04T15:27:32.529Z,471.47
2019-04-04T15:30:01.576Z,519.63
2019-04-04T15:32:30.614Z,295.67
2019-04-04T15:34:59.676Z,598.00
2019-04-04T15:37:28.714Z,600.10
2019-04-04T15:39:57.766Z,775.47
2019-04-04T15:42:26.832Z,586.63
2019-04-04T15:44:56.166Z,233.00
2019-04-04T15:47:26.658Z,308.13
2019-04-04T15:49:55.647Z,360.37
2019-04-04T15:52:24.645Z,569.07
2019-04-04T15:54:53.708Z,361.70
2019-04-04T15:57:22.749Z,321.83
2019-04-04T15:59:51.819Z,289.03
2019-04-04T16:02:20.837Z,330.77
2019-04-04T16:04:50.078Z,300.73
2019-04-04T16:07:21.309Z,326.33
2019-04-04T16:09:50.346Z,256.77
2019-04-04T16:12:19.415Z,291.97
2019-04-04T16:14:48.471Z,242.20
2019-04-04T16:17:17.548Z,260.63
2019-04-04T16:19:46.647Z,313.33
2019-04-04T16:22:15.727Z,308.13
2019-04-04T16:24:44.813Z,216.70
2019-04-04T16:27:13.863Z,214.53
2019-04-04T16:29:44.224Z,317.73
2019-04-04T16:32:13.575Z,258.37
2019-04-04T16:34:42.674Z,182.10
2019-04-04T16:37:11.719Z,224.13
2019-04-04T16:39:40.782Z,191.27
2019-04-04T16:42:09.949Z,314.03
2019-04-04T16:44:38.995Z,374.67
2019-04-04T16:47:08.025Z,202.30
2019-04-04T16:49:38.320Z,191.27
2019-04-04T16:52:07.541Z,168.73
2019-04-04T16:54:36.592Z,217.10
2019-04-04T16:57:06.708Z,202.40
2019-04-04T16:59:35.825Z,237.03
2019-04-04T17:02:04.874Z,205.63
2019-04-04T17:04:33.909Z,246.50
2019-04-04T17:07:02.998Z,167.57
2019-04-04T17:09:32.056Z,243.00
2019-04-04T17:12:09.428Z,273.63
2019-04-04T17:14:33.168Z,219.70
2019-04-04T17:17:02.418Z,183.83
2019-04-04T17:19:31.526Z,224.30
2019-04-04T17:22:00.548Z,164.50
2019-04-04T17:24:29.589Z,155.90
2019-04-04T17:26:58.652Z,309.37
2019-04-04T17:29:27.987Z,570.77
2019-04-04T17:31:57.233Z,198.60
2019-04-04T17:34:26.370Z,208.50
2019-04-04T17:36:55.662Z,187.40
2019-04-04T17:39:25.389Z,198.83
2019-04-04T17:41:55.672Z,187.07
2019-04-04T17:44:26.244Z,137.53
2019-04-04T17:46:56.248Z,236.73
2019-04-04T17:49:26.241Z,178.90
2019-04-04T17:51:55.991Z,193.43
2019-04-04T17:54:26.002Z,187.53
2019-04-04T17:56:56.024Z,152.67
2019-04-04T17:59:30.153Z,162.87
2019-04-04T18:01:59.025Z,188.20
2019-04-04T18:04:29.884Z,177.37
2019-04-04T18:06:59.745Z,314.30
2019-04-04T18:09:32.020Z,197.20
2019-04-04T18:12:02.776Z,115.77
2019-04-04T18:14:32.196Z,149.13
2019-04-04T18:17:01.234Z,159.40
2019-04-04T18:19:30.329Z,205.97
2019-04-04T18:21:59.362Z,307.50
2019-04-04T18:24:28.428Z,182.03
2019-04-04T18:26:57.527Z,154.13
2019-04-04T18:29:26.533Z,148.20
2019-04-04T18:31:55.518Z,115.93
2019-04-04T18:34:24.525Z,158.27
2019-04-04T18:36:53.587Z,135.07
2019-04-04T18:39:22.609Z,261.97
2019-04-04T18:41:51.685Z,119.33
2019-04-04T18:44:20.688Z,199.60
2019-04-04T18:46:49.804Z,186.37
2019-04-04T18:49:18.845Z,167.23
2019-04-04T18:51:47.958Z,172.30
2019-04-04T18:54:17.218Z,270.93
2019-04-04T18:56:46.295Z,171.03
2019-04-04T18:59:15.314Z,123.23
2019-04-04T19:01:44.478Z,138.13
2019-04-04T19:04:13.508Z,151.43
2019-04-04T19:06:42.589Z,119.80
2019-04-04T19:09:14.996Z,104.53
2019-04-04T19:11:44.734Z,160.47
2019-04-04T19:14:15.355Z,264.50
2019-04-04T19:16:45.279Z,177.93
2019-04-04T19:19:15.013Z,180.67
2019-04-04T19:21:44.935Z,264.03
2019-04-04T19:24:15.284Z,202.93
2019-04-04T19:26:45.754Z,169.40
2019-04-04T19:29:16.900Z,196.30
2019-04-04T19:31:47.166Z,149.47
2019-04-04T19:34:18.088Z,135.27
2019-04-04T19:36:48.121Z,193.03
2019-04-04T19:39:18.402Z,186.03
2019-04-04T19:41:48.454Z,154.87
2019-04-04T19:44:18.051Z,236.80
2019-04-04T19:46:47.117Z,221.87
2019-04-04T19:49:16.231Z,169.27
2019-04-04T19:51:45.747Z,195.13
2019-04-04T19:54:15.334Z,154.80
2019-04-04T19:56:45.048Z,167.20
2019-04-04T19:59:14.610Z,313.23
2019-04-04T20:01:44.322Z,175.93
2019-04-04T20:04:14.354Z,258.97
2019-04-04T20:06:44.251Z,316.37
2019-04-04T20:09:13.414Z,361.80
2019-04-04T20:11:42.581Z,504.87
2019-04-04T20:14:11.778Z,195.50
2019-04-04T20:16:40.865Z,158.90
2019-04-04T20:19:09.868Z,252.57
2019-04-04T20:21:39.171Z,266.17
2019-04-04T20:24:08.445Z,140.57
2019-04-04T20:26:37.492Z,233.70
2019-04-04T20:29:06.736Z,165.33
2019-04-04T20:31:35.765Z,176.50
2019-04-04T20:34:06.145Z,203.43
2019-04-04T20:36:35.515Z,144.27
2019-04-04T20:39:06.199Z,163.80
2019-04-04T20:41:35.833Z,217.57
2019-04-04T20:44:04.862Z,282.83
2019-04-04T20:46:33.913Z,244.10
2019-04-04T20:49:02.901Z,262.93
2019-04-04T20:51:31.975Z,258.97
2019-04-04T20:54:01.054Z,238.27
2019-04-04T20:56:30.090Z,243.40
2019-04-04T20:58:59.108Z,207.53
2019-04-04T21:01:28.327Z,262.43
2019-04-04T21:03:57.387Z,205.30
2019-04-04T21:06:26.431Z,192.87
2019-04-04T21:08:55.666Z,228.43
2019-04-04T21:11:24.735Z,239.40
2019-04-04T21:13:56.303Z,261.47
2019-04-04T21:16:24.448Z,271.63
2019-04-04T21:18:53.548Z,197.33
2019-04-04T21:21:22.624Z,377.53
2019-04-04T21:23:51.708Z,268.23
2019-04-04T21:26:20.906Z,334.30
2019-04-04T21:28:50.019Z,209.73
2019-04-04T21:31:19.071Z,250.07
2019-04-04T21:33:48.101Z,629.17
2019-04-04T21:36:17.120Z,172.80
2019-04-04T21:38:46.243Z,371.60
2019-04-04T21:41:15.344Z,175.07
2019-04-04T21:43:44.531Z,297.87
2019-04-04T21:46:13.655Z,255.50
2019-04-04T21:48:42.917Z,643.20
2019-04-04T21:51:11.930Z,257.93
2019-04-04T21:53:41.009Z,368.90
2019-04-04T21:56:10.029Z,274.23
2019-04-04T21:58:39.366Z,352.80
2019-04-04T22:01:08.739Z,251.03
2019-04-04T22:03:37.951Z,254.47
2019-04-04T22:06:07.139Z,511.93
2019-04-04T22:08:36.335Z,285.10
2019-04-04T22:11:05.493Z,689.90
2019-04-04T22:13:34.800Z,313.90
2019-04-04T22:16:04.301Z,305.10
2019-04-04T22:18:33.371Z,200.90
2019-04-04T22:21:02.519Z,212.57
2019-04-04T22:23:31.889Z,325.63
2019-04-04T22:26:01.125Z,271.23
2019-04-04T22:28:30.557Z,272.80
2019-04-04T22:30:59.860Z,241.10
2019-04-04T22:33:48.426Z,214.63
2019-04-04T22:36:17.665Z,119.37
2019-04-04T22:38:46.988Z,250.77
2019-04-04T22:41:16.360Z,267.23
2019-04-04T22:43:45.910Z,221.57
2019-04-04T22:46:15.094Z,245.73
2019-04-04T22:48:44.420Z,219.17
2019-04-04T22:51:13.462Z,290.50
2019-04-04T22:53:42.544Z,206.40
2019-04-04T22:56:11.767Z,211.00
2019-04-04T22:58:41.051Z,295.30
2019-04-04T23:01:10.138Z,193.67
2019-04-04T23:03:39.294Z,439.13
2019-04-04T23:06:08.458Z,195.03
2019-04-04T23:08:37.670Z,127.87
2019-04-04T23:11:07.028Z,147.70
2019-04-04T23:13:36.298Z,273.50
2019-04-04T23:16:05.617Z,222.90
2019-04-04T23:18:34.914Z,277.33
2019-04-04T23:21:04.210Z,209.70
2019-04-04T23:23:33.214Z,294.97
2019-04-04T23:26:02.447Z,245.50
2019-04-04T23:28:31.635Z,240.53
2019-04-04T23:31:01.087Z,130.80
2019-04-04T23:33:30.415Z,185.63
2019-04-04T23:36:00.745Z,202.67
2019-04-04T23:38:30.060Z,188.03
2019-04-04T23:40:59.415Z,253.27
2019-04-04T23:43:28.617Z,150.77
2019-04-04T23:45:58.133Z,301.30
2019-04-04T23:48:27.547Z,267.17
2019-04-04T23:50:56.673Z,203.23
2019-04-04T23:53:25.950Z,160.57
2019-04-04T23:55:55.395Z,149.80
2019-04-04T23:58:24.682Z,146.40
